createdAt,value
2018-05-17T00:00:43.643Z,85.55
2018-05-17T00:03:18.779Z,85.35
2018-05-17T00:05:54.349Z,85.16
2018-05-17T00:08:29.434Z,85.01
2018-05-17T00:11:04.266Z,85.37
2018-05-17T00:13:39.566Z,85.77
2018-05-17T00:16:14.783Z,85.63
2018-05-17T00:18:50.235Z,85.20
2018-05-17T00:21:25.603Z,85.19
2018-05-17T00:24:01.471Z,84.83
2018-05-17T00:26:36.081Z,84.93
2018-05-17T00:29:10.958Z,85.11
2018-05-17T00:31:46.304Z,84.97
2018-05-17T00:34:21.233Z,85.31
2018-05-17T00:36:55.943Z,84.79
2018-05-17T00:39:30.780Z,84.45
2018-05-17T00:42:05.493Z,84.21
2018-05-17T00:44:40.494Z,83.92
2018-05-17T00:47:15.566Z,84.16
2018-05-17T00:49:50.487Z,83.62
2018-05-17T00:52:25.774Z,83.54
2018-05-17T00:55:00.842Z,83.82
2018-05-17T00:57:35.855Z,84.42
2018-05-17T01:00:12.677Z,83.35
2018-05-17T01:02:47.665Z,83.50
2018-05-17T01:05:22.613Z,82.91
2018-05-17T01:07:57.133Z,83.52
2018-05-17T01:10:32.515Z,82.82
2018-05-17T01:13:07.404Z,82.86
2018-05-17T01:15:42.753Z,83.12
2018-05-17T01:18:17.553Z,83.47
2018-05-17T01:20:52.565Z,83.70
2018-05-17T01:23:27.802Z,83.85
2018-05-17T01:26:03.054Z,83.46
2018-05-17T01:28:37.873Z,83.42
2018-05-17T01:31:12.965Z,83.54
2018-05-17T01:33:48.578Z,83.41
2018-05-17T01:36:23.061Z,83.68
2018-05-17T01:38:57.971Z,83.15
2018-05-17T01:41:33.459Z,83.01
2018-05-17T01:44:08.549Z,83.86
2018-05-17T01:46:43.862Z,84.62
2018-05-17T01:49:18.830Z,83.44
2018-05-17T01:51:53.653Z,83.52
2018-05-17T01:54:28.774Z,83.79
2018-05-17T01:57:03.781Z,83.42
2018-05-17T01:59:38.651Z,83.59
2018-05-17T02:02:13.784Z,83.79
2018-05-17T02:04:48.625Z,82.67
2018-05-17T02:07:23.733Z,82.85
2018-05-17T02:09:58.881Z,83.30
2018-05-17T02:12:33.858Z,83.45
2018-05-17T02:15:09.186Z,83.19
2018-05-17T02:17:44.677Z,83.63
2018-05-17T02:20:19.891Z,83.95
2018-05-17T02:22:54.842Z,83.33
2018-05-17T02:25:29.781Z,83.03
2018-05-17T02:28:04.428Z,83.26
2018-05-17T02:30:39.718Z,83.39
2018-05-17T02:33:14.942Z,83.79
2018-05-17T02:35:49.977Z,83.93
2018-05-17T02:38:24.983Z,83.58
2018-05-17T02:41:00.110Z,83.63
2018-05-17T02:43:35.190Z,83.64
2018-05-17T02:46:10.987Z,83.96
2018-05-17T02:48:45.731Z,83.04
2018-05-17T02:51:20.973Z,82.80
2018-05-17T02:53:56.113Z,83.02
2018-05-17T02:56:31.335Z,82.74
2018-05-17T02:59:06.401Z,83.05
2018-05-17T03:01:41.186Z,83.22
2018-05-17T03:04:16.106Z,83.36
2018-05-17T03:06:51.242Z,82.83
2018-05-17T03:09:26.290Z,82.98
2018-05-17T03:12:00.893Z,83.27
2018-05-17T03:14:36.036Z,83.54
2018-05-17T03:17:11.666Z,83.51
2018-05-17T03:19:46.756Z,83.03
2018-05-17T03:22:22.073Z,82.91
2018-05-17T03:24:57.059Z,82.26
2018-05-17T03:27:31.767Z,81.67
2018-05-17T03:30:06.380Z,81.54
2018-05-17T03:32:41.403Z,81.64
2018-05-17T03:35:17.146Z,81.38
2018-05-17T03:37:52.074Z,81.53
2018-05-17T03:40:27.149Z,80.57
2018-05-17T03:43:02.031Z,80.96
2018-05-17T03:45:37.669Z,80.76
2018-05-17T03:48:13.503Z,81.08
2018-05-17T03:50:48.988Z,80.75
2018-05-17T03:53:24.805Z,81.30
2018-05-17T03:55:59.942Z,81.47
2018-05-17T03:58:35.012Z,81.53
2018-05-17T04:01:21.270Z,81.94
2018-05-17T04:04:07.122Z,81.18
2018-05-17T04:06:41.369Z,80.13
2018-05-17T04:09:16.938Z,80.27
2018-05-17T04:11:51.462Z,79.72
2018-05-17T04:14:26.823Z,80.41
2018-05-17T04:17:01.881Z,79.94
2018-05-17T04:19:36.846Z,80.51
2018-05-17T04:22:13.328Z,80.84
2018-05-17T04:24:47.889Z,81.34
2018-05-17T04:27:23.166Z,81.53
2018-05-17T04:29:58.014Z,81.38
2018-05-17T04:32:33.194Z,81.48
2018-05-17T04:35:08.842Z,80.96
2018-05-17T04:37:43.967Z,81.02
2018-05-17T04:40:19.162Z,80.43
2018-05-17T04:42:54.031Z,80.81
2018-05-17T04:45:29.182Z,80.11
2018-05-17T04:48:04.062Z,79.99
2018-05-17T04:50:39.096Z,80.10
2018-05-17T04:53:13.722Z,80.56
2018-05-17T04:55:49.003Z,80.11
2018-05-17T04:58:24.093Z,79.68
2018-05-17T05:00:59.237Z,79.68
2018-05-17T05:03:34.149Z,79.93
2018-05-17T05:06:09.318Z,79.64
2018-05-17T05:08:44.541Z,80.11
2018-05-17T05:11:19.278Z,80.24
2018-05-17T05:13:54.036Z,80.99
2018-05-17T05:16:28.985Z,81.05
2018-05-17T05:19:04.226Z,80.26
2018-05-17T05:21:39.317Z,79.59
2018-05-17T05:24:14.550Z,79.08
2018-05-17T05:26:49.546Z,78.69
2018-05-17T05:29:24.546Z,79.33
2018-05-17T05:31:59.455Z,78.90
2018-05-17T05:34:34.986Z,78.85
2018-05-17T05:37:10.119Z,79.12
2018-05-17T05:39:45.043Z,79.10
2018-05-17T05:42:20.130Z,78.01
2018-05-17T05:44:54.937Z,77.81
2018-05-17T05:47:31.174Z,78.42
2018-05-17T05:50:05.803Z,78.59
2018-05-17T05:52:40.775Z,78.27
2018-05-17T05:55:15.206Z,78.04
2018-05-17T05:57:50.156Z,77.71
2018-05-17T06:00:25.123Z,77.11
2018-05-17T06:03:00.358Z,77.49
2018-05-17T06:05:35.433Z,77.62
2018-05-17T06:08:11.131Z,79.60
2018-05-17T06:10:45.778Z,78.91
2018-05-17T06:13:20.779Z,77.18
2018-05-17T06:15:56.115Z,76.35
2018-05-17T06:18:31.186Z,77.10
2018-05-17T06:21:06.335Z,77.57
2018-05-17T06:23:41.347Z,77.76
2018-05-17T06:26:16.351Z,78.47
2018-05-17T06:28:51.335Z,76.93
2018-05-17T06:31:26.412Z,76.99
2018-05-17T06:34:01.519Z,75.74
2018-05-17T06:36:36.476Z,74.18
2018-05-17T06:39:11.398Z,75.54
2018-05-17T06:41:46.440Z,74.82
2018-05-17T06:44:21.561Z,76.57
2018-05-17T06:46:56.621Z,74.24
2018-05-17T06:49:31.798Z,74.90
2018-05-17T06:52:06.857Z,75.11
2018-05-17T06:54:41.542Z,73.79
2018-05-17T06:57:16.743Z,72.79
2018-05-17T06:59:51.780Z,72.38
2018-05-17T07:02:26.637Z,72.88
2018-05-17T07:05:01.510Z,74.83
2018-05-17T07:07:36.583Z,74.29
2018-05-17T07:10:11.246Z,74.37
2018-05-17T07:12:46.381Z,73.53
2018-05-17T07:15:21.557Z,73.12
2018-05-17T07:17:56.222Z,72.63
2018-05-17T07:20:31.443Z,72.06
2018-05-17T07:23:06.798Z,70.91
2018-05-17T07:25:41.860Z,72.15
2018-05-17T07:28:17.454Z,72.88
2018-05-17T07:30:52.747Z,71.06
2018-05-17T07:33:28.057Z,71.27
2018-05-17T07:36:03.342Z,71.30
2018-05-17T07:38:38.363Z,69.80
2018-05-17T07:41:13.879Z,70.60
2018-05-17T07:43:48.555Z,71.08
2018-05-17T07:46:23.438Z,72.45
2018-05-17T07:48:57.986Z,71.25
2018-05-17T07:51:32.767Z,71.12
2018-05-17T07:54:07.669Z,72.73
2018-05-17T07:56:42.874Z,70.27
2018-05-17T07:59:17.732Z,69.18
2018-05-17T08:01:52.820Z,70.23
2018-05-17T08:04:27.737Z,70.45
2018-05-17T08:07:02.474Z,68.92
2018-05-17T08:09:37.681Z,69.98
2018-05-17T08:12:13.830Z,70.46
2018-05-17T08:14:48.869Z,68.92
2018-05-17T08:17:24.408Z,68.36
2018-05-17T08:19:59.419Z,67.04
2018-05-17T08:22:34.355Z,67.75
2018-05-17T08:25:08.685Z,68.02
2018-05-17T08:27:44.043Z,67.13
2018-05-17T08:30:19.279Z,68.20
2018-05-17T08:32:54.203Z,67.52
2018-05-17T08:35:29.519Z,65.81
2018-05-17T08:38:04.601Z,65.58
2018-05-17T08:40:39.845Z,66.91
2018-05-17T08:43:14.589Z,66.16
2018-05-17T08:45:49.608Z,65.38
2018-05-17T08:48:24.962Z,65.44
2018-05-17T08:50:59.882Z,64.96
2018-05-17T08:53:34.363Z,63.96
2018-05-17T08:56:09.914Z,64.22
2018-05-17T08:58:45.433Z,64.89
2018-05-17T09:01:20.625Z,63.56
2018-05-17T09:03:55.590Z,63.92
2018-05-17T09:06:30.862Z,62.62
2018-05-17T09:09:05.957Z,64.28
2018-05-17T09:11:41.292Z,65.97
2018-05-17T09:14:16.606Z,64.05
2018-05-17T09:16:51.530Z,65.18
2018-05-17T09:19:26.685Z,64.02
2018-05-17T09:22:01.619Z,65.05
2018-05-17T09:24:36.655Z,62.56
2018-05-17T09:27:11.753Z,62.07
2018-05-17T09:29:46.774Z,62.82
2018-05-17T09:32:22.001Z,63.13
2018-05-17T09:34:56.837Z,62.06
2018-05-17T09:37:32.058Z,62.76
2018-05-17T09:40:07.213Z,63.00
2018-05-17T09:42:42.030Z,61.69
2018-05-17T09:45:17.806Z,60.58
2018-05-17T09:47:52.192Z,59.82
2018-05-17T09:50:27.783Z,60.32
2018-05-17T09:53:02.780Z,61.57
2018-05-17T09:55:37.885Z,60.12
2018-05-17T09:58:13.986Z,58.92
2018-05-17T10:00:48.698Z,56.63
2018-05-17T10:03:23.939Z,56.72
2018-05-17T10:05:58.853Z,59.08
2018-05-17T10:08:33.930Z,58.25
2018-05-17T10:11:09.158Z,56.38
2018-05-17T10:13:44.306Z,58.40
2018-05-17T10:16:19.203Z,58.22
2018-05-17T10:18:54.438Z,55.73
2018-05-17T10:21:29.591Z,57.18
2018-05-17T10:24:04.242Z,57.08
2018-05-17T10:26:39.251Z,55.81
2018-05-17T10:29:14.366Z,54.54
2018-05-17T10:31:49.270Z,54.21
2018-05-17T10:34:24.358Z,55.20
2018-05-17T10:36:59.722Z,55.56
2018-05-17T10:39:34.666Z,55.30
2018-05-17T10:42:09.893Z,54.26
2018-05-17T10:44:44.808Z,52.59
2018-05-17T10:47:19.735Z,53.37
2018-05-17T10:49:54.384Z,52.37
2018-05-17T10:52:29.010Z,50.98
2018-05-17T10:55:03.799Z,51.57
2018-05-17T10:57:38.274Z,52.38
2018-05-17T11:00:14.279Z,53.68
2018-05-17T11:02:48.842Z,54.64
2018-05-17T11:05:24.210Z,52.71
2018-05-17T11:07:59.147Z,53.95
2018-05-17T11:10:34.577Z,52.73
2018-05-17T11:13:09.302Z,54.06
2018-05-17T11:15:44.247Z,51.90
2018-05-17T11:18:19.963Z,52.63
2018-05-17T11:20:54.426Z,51.31
2018-05-17T11:23:29.548Z,52.22
2018-05-17T11:26:04.295Z,51.75
2018-05-17T11:28:39.108Z,51.76
2018-05-17T11:31:14.311Z,51.84
2018-05-17T11:33:49.077Z,52.31
2018-05-17T11:36:23.999Z,51.56
2018-05-17T11:38:58.929Z,50.39
2018-05-17T11:41:34.456Z,51.23
2018-05-17T11:44:09.466Z,53.12
2018-05-17T11:46:44.595Z,52.07
2018-05-17T11:49:20.213Z,49.88
2018-05-17T11:51:55.063Z,49.81
2018-05-17T11:54:30.293Z,51.69
2018-05-17T11:57:05.426Z,49.73
2018-05-17T11:59:41.006Z,50.03
2018-05-17T12:02:16.295Z,50.84
2018-05-17T12:04:51.165Z,52.20
2018-05-17T12:07:26.672Z,52.70
2018-05-17T12:10:01.632Z,51.03
2018-05-17T12:12:36.998Z,51.15
2018-05-17T12:15:12.274Z,50.35
2018-05-17T12:17:47.651Z,50.38
2018-05-17T12:20:22.567Z,50.64
2018-05-17T12:22:57.611Z,50.48
2018-05-17T12:25:32.737Z,49.95
2018-05-17T12:28:08.316Z,51.17
2018-05-17T12:30:43.153Z,54.64
2018-05-17T12:33:18.284Z,54.13
2018-05-17T12:35:52.699Z,53.79
2018-05-17T12:38:27.658Z,52.43
2018-05-17T12:41:02.554Z,53.20
2018-05-17T12:43:37.311Z,51.64
2018-05-17T12:46:12.515Z,51.72
2018-05-17T12:48:47.553Z,51.45
2018-05-17T12:51:22.519Z,50.92
2018-05-17T12:53:57.606Z,52.14
2018-05-17T12:56:32.613Z,51.09
2018-05-17T12:59:08.128Z,52.52
2018-05-17T13:01:43.230Z,51.48
2018-05-17T13:04:18.398Z,51.09
2018-05-17T13:06:53.136Z,52.00
2018-05-17T13:09:28.094Z,52.07
2018-05-17T13:12:03.379Z,52.82
2018-05-17T13:14:38.261Z,53.73
2018-05-17T13:17:14.578Z,54.44
2018-05-17T13:19:50.146Z,55.06
2018-05-17T13:22:26.082Z,54.91
2018-05-17T13:25:01.317Z,54.56
2018-05-17T13:27:36.110Z,56.49
2018-05-17T13:30:11.494Z,58.03
2018-05-17T13:32:46.738Z,58.04
2018-05-17T13:35:21.538Z,58.51
2018-05-17T13:37:56.300Z,58.80
2018-05-17T13:40:31.539Z,58.35
2018-05-17T13:43:06.487Z,58.77
2018-05-17T13:45:41.358Z,60.66
2018-05-17T13:48:16.581Z,60.95
2018-05-17T13:50:51.457Z,61.57
2018-05-17T13:53:26.668Z,62.56
2018-05-17T13:56:01.693Z,62.86
2018-05-17T13:58:36.507Z,63.73
2018-05-17T14:01:11.540Z,63.29
2018-05-17T14:03:46.566Z,62.98
2018-05-17T14:06:21.773Z,64.22
2018-05-17T14:08:56.846Z,64.39
2018-05-17T14:11:31.878Z,64.47
2018-05-17T14:14:07.035Z,64.53
2018-05-17T14:16:42.414Z,64.36
2018-05-17T14:19:17.307Z,64.98
2018-05-17T14:21:52.463Z,65.24
2018-05-17T14:24:27.734Z,64.53
2018-05-17T14:27:02.526Z,63.46
2018-05-17T14:29:37.485Z,63.81
2018-05-17T14:32:12.707Z,64.87
2018-05-17T14:34:47.474Z,64.79
2018-05-17T14:37:22.471Z,64.93
2018-05-17T14:39:57.506Z,64.30
2018-05-17T14:42:32.785Z,64.82
2018-05-17T14:45:07.610Z,64.60
2018-05-17T14:47:42.538Z,64.95
2018-05-17T14:50:17.845Z,65.67
2018-05-17T14:52:53.353Z,67.34
2018-05-17T14:55:28.454Z,66.12
2018-05-17T14:58:03.527Z,67.19
2018-05-17T15:00:38.393Z,67.09
2018-05-17T15:03:14.867Z,67.06
2018-05-17T15:05:49.582Z,66.01
2018-05-17T15:08:24.642Z,65.71
2018-05-17T15:10:59.811Z,66.34
2018-05-17T15:13:35.108Z,66.35
2018-05-17T15:16:11.246Z,66.35
2018-05-17T15:18:46.559Z,66.92
2018-05-17T15:21:21.646Z,66.74
2018-05-17T15:23:56.415Z,67.04
2018-05-17T15:26:31.642Z,67.39
2018-05-17T15:29:06.635Z,67.49
2018-05-17T15:31:41.096Z,68.10
2018-05-17T15:34:16.706Z,68.69
2018-05-17T15:36:51.494Z,69.24
2018-05-17T15:39:26.683Z,70.21
2018-05-17T15:42:01.858Z,69.33
2018-05-17T15:44:36.839Z,69.58
2018-05-17T15:47:12.306Z,69.57
2018-05-17T15:49:47.763Z,70.46
2018-05-17T15:52:23.059Z,71.08
2018-05-17T15:54:58.342Z,70.49
2018-05-17T15:57:33.573Z,70.94
2018-05-17T16:00:08.154Z,70.60
2018-05-17T16:02:42.805Z,70.05
2018-05-17T16:05:17.880Z,69.85
2018-05-17T16:07:52.794Z,70.05
2018-05-17T16:10:27.921Z,70.37
2018-05-17T16:13:02.695Z,70.27
2018-05-17T16:15:37.920Z,70.59
2018-05-17T16:18:13.138Z,71.21
2018-05-17T16:20:48.075Z,71.61
2018-05-17T16:23:22.774Z,71.68
2018-05-17T16:25:57.726Z,71.63
2018-05-17T16:28:32.908Z,71.87
2018-05-17T16:31:07.752Z,71.90
2018-05-17T16:33:42.970Z,72.19
2018-05-17T16:36:18.215Z,72.39
2018-05-17T16:38:53.034Z,72.75
2018-05-17T16:41:28.085Z,73.02
2018-05-17T16:44:02.954Z,73.12
2018-05-17T16:46:37.534Z,73.41
2018-05-17T16:49:11.985Z,74.38
2018-05-17T16:51:48.726Z,73.38
2018-05-17T16:54:23.970Z,73.67
2018-05-17T16:56:59.022Z,72.62
2018-05-17T16:59:34.259Z,72.50
2018-05-17T17:02:09.786Z,74.11
2018-05-17T17:04:44.800Z,73.63
2018-05-17T17:07:20.010Z,72.58
2018-05-17T17:09:54.930Z,72.69
2018-05-17T17:12:30.095Z,72.75
2018-05-17T17:15:05.234Z,72.78
2018-05-17T17:17:40.319Z,73.71
2018-05-17T17:20:14.923Z,72.97
2018-05-17T17:22:50.220Z,73.41
2018-05-17T17:25:25.127Z,73.59
2018-05-17T17:28:00.325Z,74.19
2018-05-17T17:30:35.651Z,74.05
2018-05-17T17:33:10.377Z,73.47
2018-05-17T17:35:45.802Z,73.59
2018-05-17T17:38:21.002Z,73.51
2018-05-17T17:40:55.954Z,73.94
2018-05-17T17:43:31.349Z,74.51
2018-05-17T17:46:06.226Z,74.67
2018-05-17T17:48:41.274Z,75.03
2018-05-17T17:51:17.158Z,74.65
2018-05-17T17:53:51.979Z,74.85
2018-05-17T17:56:27.116Z,75.42
2018-05-17T17:59:02.178Z,75.45
2018-05-17T18:01:37.377Z,76.06
2018-05-17T18:04:12.958Z,75.41
2018-05-17T18:06:47.965Z,75.85
2018-05-17T18:09:22.967Z,76.41
2018-05-17T18:11:58.062Z,75.28
2018-05-17T18:14:33.317Z,74.37
2018-05-17T18:17:08.396Z,75.31
2018-05-17T18:19:43.485Z,74.66
2018-05-17T18:22:18.595Z,74.42
2018-05-17T18:24:53.586Z,74.75
2018-05-17T18:27:29.619Z,75.14
2018-05-17T18:30:04.238Z,75.20
2018-05-17T18:32:39.417Z,75.54
2018-05-17T18:35:15.106Z,75.95
2018-05-17T18:37:50.370Z,75.84
2018-05-17T18:40:25.467Z,75.37
2018-05-17T18:43:00.638Z,75.34
2018-05-17T18:45:35.472Z,75.60
2018-05-17T18:48:10.138Z,76.58
2018-05-17T18:50:44.666Z,76.06
2018-05-17T18:53:19.826Z,75.36
2018-05-17T18:55:54.817Z,75.10
2018-05-17T18:58:30.135Z,75.26
2018-05-17T19:01:04.867Z,75.97
2018-05-17T19:03:40.015Z,75.37
2018-05-17T19:06:15.478Z,76.33
2018-05-17T19:08:50.606Z,75.39
2018-05-17T19:11:25.669Z,75.33
2018-05-17T19:14:01.021Z,75.31
2018-05-17T19:16:36.359Z,75.64
2018-05-17T19:19:11.181Z,76.14
2018-05-17T19:21:46.615Z,76.62
2018-05-17T19:24:22.235Z,76.85
2018-05-17T19:26:57.630Z,76.33
2018-05-17T19:29:33.031Z,77.01
2018-05-17T19:32:08.456Z,76.14
2018-05-17T19:34:43.575Z,76.55
2018-05-17T19:37:18.613Z,76.86
2018-05-17T19:39:53.902Z,76.87
2018-05-17T19:42:29.390Z,77.40
2018-05-17T19:45:03.909Z,76.66
2018-05-17T19:47:38.915Z,76.82
2018-05-17T19:50:13.993Z,77.02
2018-05-17T19:52:48.674Z,78.52
2018-05-17T19:55:23.490Z,78.73
2018-05-17T19:57:58.513Z,77.22
2018-05-17T20:00:33.494Z,76.85
2018-05-17T20:03:08.559Z,76.90
2018-05-17T20:05:43.642Z,77.17
2018-05-17T20:08:18.950Z,77.34
2018-05-17T20:10:53.641Z,77.06
2018-05-17T20:13:28.052Z,77.79
2018-05-17T20:16:03.964Z,77.08
2018-05-17T20:18:39.174Z,76.83
2018-05-17T20:21:15.894Z,77.25
2018-05-17T20:23:51.149Z,76.63
2018-05-17T20:26:26.019Z,76.39
2018-05-17T20:29:01.093Z,76.90
2018-05-17T20:31:36.562Z,77.50
2018-05-17T20:34:11.870Z,77.76
2018-05-17T20:36:47.555Z,77.88
2018-05-17T20:39:22.642Z,77.90
2018-05-17T20:41:57.776Z,77.08
2018-05-17T20:44:33.003Z,77.27
2018-05-17T20:47:07.925Z,77.25
2018-05-17T20:49:42.898Z,77.26
2018-05-17T20:52:17.833Z,77.71
2018-05-17T20:54:52.670Z,78.21
2018-05-17T20:57:27.855Z,78.45
2018-05-17T21:00:02.738Z,79.35
2018-05-17T21:02:37.539Z,77.94
2018-05-17T21:05:12.911Z,78.98
2018-05-17T21:07:47.831Z,77.64
2018-05-17T21:10:22.942Z,75.99
2018-05-17T21:12:58.007Z,75.19
2018-05-17T21:15:32.594Z,75.68
2018-05-17T21:18:07.866Z,76.29
2018-05-17T21:20:42.883Z,76.93
2018-05-17T21:23:18.186Z,78.47
2018-05-17T21:25:53.817Z,78.13
2018-05-17T21:28:29.649Z,78.25
2018-05-17T21:31:04.689Z,78.19
2018-05-17T21:33:39.739Z,78.15
2018-05-17T21:36:16.035Z,79.14
2018-05-17T21:38:50.708Z,78.28
2018-05-17T21:41:25.962Z,76.81
2018-05-17T21:44:00.943Z,76.88
2018-05-17T21:46:35.442Z,77.45
2018-05-17T21:49:10.886Z,78.23
2018-05-17T21:51:45.954Z,78.80
2018-05-17T21:54:21.586Z,79.69
2018-05-17T21:56:56.716Z,79.94
2018-05-17T21:59:31.950Z,79.93
2018-05-17T22:02:07.016Z,79.60
2018-05-17T22:04:41.746Z,79.24
2018-05-17T22:07:18.975Z,78.59
2018-05-17T22:09:53.699Z,78.58
2018-05-17T22:12:28.990Z,79.10
2018-05-17T22:15:03.785Z,79.75
2018-05-17T22:17:38.938Z,79.87
2018-05-17T22:20:13.035Z,80.17
2018-05-17T22:22:49.277Z,80.49
2018-05-17T22:25:24.720Z,80.81
2018-05-17T22:27:59.850Z,80.83
2018-05-17T22:30:34.574Z,81.09
2018-05-17T22:33:10.059Z,80.40
2018-05-17T22:35:45.363Z,80.32
2018-05-17T22:38:20.090Z,80.42
2018-05-17T22:40:55.233Z,80.17
2018-05-17T22:43:30.400Z,80.17
2018-05-17T22:46:05.745Z,79.96
2018-05-17T22:48:40.656Z,80.15
2018-05-17T22:51:16.722Z,80.13
2018-05-17T22:53:51.259Z,80.16
2018-05-17T22:56:37.383Z,80.41
2018-05-17T22:59:12.294Z,80.61
2018-05-17T23:01:47.426Z,80.84
2018-05-17T23:04:22.967Z,80.82
2018-05-17T23:06:57.630Z,80.92
2018-05-17T23:09:32.797Z,80.81
2018-05-17T23:12:08.264Z,81.14
2018-05-17T23:14:43.970Z,81.28
2018-05-17T23:17:19.050Z,81.55
2018-05-17T23:19:53.972Z,81.63
2018-05-17T23:22:35.487Z,81.71
2018-05-17T23:25:10.671Z,82.03
2018-05-17T23:27:45.955Z,82.17
2018-05-17T23:30:20.249Z,82.20
2018-05-17T23:32:55.093Z,81.99
2018-05-17T23:35:31.187Z,82.00
2018-05-17T23:38:06.028Z,82.14
2018-05-17T23:54:14.026Z,82.31
2018-05-17T23:56:49.371Z,82.15
2018-05-17T23:59:24.059Z,82.43
